Time;durP1;ratioP1;P1;durP2;ratioP2;P2;SDS_P1;SDS_P2;PMS_P1;PMS_P2;Temp;Humidity;BMP_temperature;BMP_pressure;BME280_temperature;BME280_humidity;BME280_pressure;Samples;Min_cycle;Max_cycle;Signal;HPM_P1;HPM_P2
2022/11/30 00:00:19;;;;;;;102.77;94.97;;;6.70;99.90;;;;;;5070706;28;20254;-71
2022/11/30 00:02:46;;;;;;;102.00;94.30;;;6.70;99.90;;;;;;5051264;28;20192;-72
2022/11/30 00:05:12;;;;;;;91.37;84.27;;;6.80;99.90;;;;;;5071073;28;20177;-71
2022/11/30 00:07:38;;;;;;;60.87;55.40;;;6.80;99.90;;;;;;5070703;28;20193;-71
2022/11/30 00:10:04;;;;;;;42.33;30.73;;;6.80;99.90;;;;;;5071074;28;20213;-72
2022/11/30 00:12:30;;;;;;;31.87;23.63;;;6.80;99.90;;;;;;5056776;28;20654;-71
2022/11/30 00:14:56;;;;;;;33.60;23.30;;;6.70;99.90;;;;;;5033105;28;20186;-71
2022/11/30 00:17:22;;;;;;;34.30;25.30;;;6.70;99.90;;;;;;5032642;28;20179;-71
2022/11/30 00:19:47;;;;;;;44.93;40.43;;;6.80;99.90;;;;;;5050315;28;20214;-72
2022/11/30 00:22:13;;;;;;;43.87;39.53;;;6.70;99.90;;;;;;5061524;28;20238;-71
2022/11/30 00:24:39;;;;;;;35.50;23.93;;;6.80;99.90;;;;;;5070618;28;20180;-71
2022/11/30 00:27:05;;;;;;;33.30;22.10;;;6.70;99.90;;;;;;5052479;28;20654;-71
2022/11/30 00:29:31;;;;;;;32.13;22.43;;;6.80;99.90;;;;;;5070516;28;20229;-72
2022/11/30 00:31:57;;;;;;;33.00;22.30;;;6.80;99.90;;;;;;5061647;28;20182;-72
2022/11/30 00:34:22;;;;;;;33.77;23.03;;;6.80;99.90;;;;;;5050469;28;20269;-72
2022/11/30 00:36:48;;;;;;;32.60;21.83;;;6.70;99.90;;;;;;5050273;28;20178;-72
2022/11/30 00:39:14;;;;;;;33.63;25.07;;;6.70;99.90;;;;;;5050355;28;20217;-72
2022/11/30 00:41:40;;;;;;;31.87;25.23;;;6.70;99.90;;;;;;5038436;28;20174;-72
2022/11/30 00:44:05;;;;;;;47.10;22.93;;;6.70;99.90;;;;;;5071064;28;20178;-72
2022/11/30 00:46:31;;;;;;;32.30;23.47;;;6.70;99.90;;;;;;5070446;28;20181;-72
2022/11/30 00:48:57;;;;;;;36.53;31.60;;;6.70;99.90;;;;;;5052193;28;20242;-72
2022/11/30 00:51:23;;;;;;;56.83;51.97;;;6.70;99.90;;;;;;5050842;28;20178;-72
2022/11/30 00:53:48;;;;;;;73.83;67.83;;;6.70;99.90;;;;;;5052659;28;20231;-72
2022/11/30 00:56:14;;;;;;;72.43;66.80;;;6.70;99.90;;;;;;5070366;28;20185;-72
2022/11/30 00:58:40;;;;;;;39.20;34.97;;;6.70;99.90;;;;;;5052048;28;20668;-72
2022/11/30 01:01:07;;;;;;;33.20;23.27;;;6.70;99.90;;;;;;5068968;28;20204;-72
2022/11/30 01:03:33;;;;;;;33.93;23.80;;;6.70;99.90;;;;;;5050543;28;20527;-72
2022/11/30 01:06:08;;;;;;;31.63;24.40;;;6.70;99.90;;;;;;5050300;28;20275;-72
2022/11/30 01:08:34;;;;;;;32.07;23.60;;;6.70;99.90;;;;;;5050016;28;20733;-72
2022/11/30 01:11:13;;;;;;;32.57;25.00;;;6.70;99.90;;;;;;5032412;28;20202;-72
2022/11/30 01:13:39;;;;;;;28.57;22.37;;;6.70;99.90;;;;;;5032687;28;20655;-72
2022/11/30 01:16:30;;;;;;;27.30;22.10;;;6.70;99.90;;;;;;5034045;28;20186;-72
2022/11/30 01:18:56;;;;;;;33.80;22.37;;;6.80;99.90;;;;;;5020702;28;20221;-72
2022/11/30 01:21:25;;;;;;;30.50;21.67;;;6.80;99.90;;;;;;5019818;28;20213;-72
2022/11/30 01:23:52;;;;;;;30.17;25.00;;;6.80;99.90;;;;;;5053935;28;20189;-72
2022/11/30 01:26:18;;;;;;;30.57;26.00;;;6.80;99.90;;;;;;5036134;28;20547;-73
2022/11/30 01:28:48;;;;;;;31.27;25.83;;;6.80;99.90;;;;;;5035849;28;20186;-73
2022/11/30 01:31:14;;;;;;;32.87;26.70;;;6.70;99.90;;;;;;5037446;28;20292;-72
2022/11/30 01:33:41;;;;;;;29.23;25.97;;;6.70;99.90;;;;;;5073627;28;20182;-72
2022/11/30 01:36:14;;;;;;;28.87;24.93;;;6.70;99.90;;;;;;5073625;28;20177;-72
2022/11/30 01:38:43;;;;;;;31.30;27.53;;;6.70;99.90;;;;;;5073154;28;20272;-72
2022/11/30 01:41:11;;;;;;;29.83;25.80;;;6.70;99.90;;;;;;5071469;28;20190;-72
2022/11/30 01:43:39;;;;;;;28.03;24.57;;;6.70;99.90;;;;;;5063290;28;20182;-72
2022/11/30 01:46:16;;;;;;;26.43;20.07;;;6.70;99.90;;;;;;5055099;28;20171;-72
2022/11/30 01:48:42;;;;;;;26.97;18.83;;;6.70;99.90;;;;;;5054552;28;20175;-73
2022/11/30 01:51:08;;;;;;;29.80;22.27;;;6.70;99.90;;;;;;5036467;28;20289;-73
2022/11/30 01:53:34;;;;;;;71.07;66.03;;;6.70;99.90;;;;;;5053988;28;20296;-72
2022/11/30 01:56:00;;;;;;;87.03;81.03;;;6.70;99.90;;;;;;5054255;28;20178;-72
2022/11/30 01:58:29;;;;;;;61.87;56.97;;;6.70;99.90;;;;;;5052745;28;20256;-72
2022/11/30 02:00:55;;;;;;;51.03;46.73;;;6.60;99.90;;;;;;5055731;28;20198;-72
2022/11/30 02:03:42;;;;;;;69.57;64.70;;;6.60;99.90;;;;;;5061524;28;20212;-72
2022/11/30 02:06:09;;;;;;;31.33;28.37;;;6.60;99.90;;;;;;5072682;28;20224;-73
2022/11/30 02:08:35;;;;;;;24.77;20.97;;;6.60;99.90;;;;;;5054791;28;20190;-72
2022/11/30 02:11:04;;;;;;;24.50;21.80;;;6.60;99.90;;;;;;5072908;28;20217;-72
2022/11/30 02:13:48;;;;;;;23.63;17.37;;;6.60;99.90;;;;;;5072803;28;20203;-72
2022/11/30 02:16:38;;;;;;;23.90;16.87;;;6.60;99.90;;;;;;5055141;28;20230;-72
2022/11/30 02:19:04;;;;;;;25.73;17.13;;;6.60;99.90;;;;;;5072273;28;20210;-73
2022/11/30 02:21:50;;;;;;;29.87;21.63;;;6.60;99.90;;;;;;5070375;28;20601;-72
2022/11/30 02:24:31;;;;;;;24.90;18.77;;;6.60;99.90;;;;;;5034526;28;20174;-73
2022/11/30 02:27:09;;;;;;;27.50;23.97;;;6.60;99.90;;;;;;5052281;28;20225;-74
2022/11/30 02:30:02;;;;;;;23.93;20.03;;;6.60;99.90;;;;;;5034487;28;20214;-73
2022/11/30 02:32:32;;;;;;;21.43;16.07;;;6.60;99.90;;;;;;5062134;28;20288;-72
2022/11/30 02:35:00;;;;;;;22.13;16.77;;;6.60;99.90;;;;;;5072494;28;20185;-74
2022/11/30 02:37:28;;;;;;;21.13;15.13;;;6.60;99.90;;;;;;5071822;28;20696;-72
2022/11/30 02:39:54;;;;;;;25.03;20.40;;;6.60;99.90;;;;;;5054396;28;20308;-72
2022/11/30 02:42:20;;;;;;;25.10;22.30;;;6.60;99.90;;;;;;5045673;28;20262;-72
2022/11/30 02:44:49;;;;;;;23.97;19.50;;;6.60;99.90;;;;;;5052209;28;20182;-72
2022/11/30 02:47:51;;;;;;;21.53;18.17;;;6.60;99.90;;;;;;5051769;28;20174;-72
2022/11/30 02:50:24;;;;;;;23.00;20.60;;;6.60;99.90;;;;;;4963826;28;20213;-72
2022/11/30 02:52:51;;;;;;;29.17;23.53;;;6.60;99.90;;;;;;5054939;28;20182;-73
2022/11/30 02:55:19;;;;;;;20.83;17.03;;;6.60;99.90;;;;;;5052484;28;20178;-72
2022/11/30 02:57:45;;;;;;;37.40;33.93;;;6.60;99.90;;;;;;5052068;28;20178;-73
2022/11/30 03:00:12;;;;;;;69.37;64.67;;;6.60;99.90;;;;;;5051750;28;20236;-72
2022/11/30 03:02:39;;;;;;;65.20;60.73;;;6.60;99.90;;;;;;5044778;28;20200;-72
2022/11/30 03:05:06;;;;;;;47.20;43.53;;;6.50;99.90;;;;;;5038338;28;20590;-72
2022/11/30 03:07:32;;;;;;;37.17;33.97;;;6.50;99.90;;;;;;5051520;28;20221;-73
2022/11/30 03:09:58;;;;;;;28.73;26.03;;;6.50;99.90;;;;;;5034016;28;20237;-72
2022/11/30 03:12:24;;;;;;;25.93;22.83;;;6.50;99.90;;;;;;5034031;28;20647;-72
2022/11/30 03:14:50;;;;;;;28.60;26.00;;;6.50;99.90;;;;;;5033564;28;20188;-73
2022/11/30 03:17:16;;;;;;;44.77;41.17;;;6.50;99.90;;;;;;5051273;28;20186;-72
2022/11/30 03:19:42;;;;;;;68.23;63.73;;;6.60;99.90;;;;;;5051405;28;20301;-73
2022/11/30 03:22:08;;;;;;;65.90;61.47;;;6.60;99.90;;;;;;5054863;28;20222;-73
2022/11/30 03:24:34;;;;;;;21.13;19.07;;;6.60;99.90;;;;;;5071754;28;20566;-73
2022/11/30 03:26:59;;;;;;;19.37;15.23;;;6.60;99.90;;;;;;5071374;28;20185;-74
2022/11/30 03:29:26;;;;;;;20.80;18.53;;;6.60;99.90;;;;;;5072101;28;20288;-74
2022/11/30 03:31:52;;;;;;;25.00;22.63;;;6.60;99.90;;;;;;5052623;28;20188;-73
2022/11/30 03:34:17;;;;;;;25.73;23.10;;;6.70;99.90;;;;;;5051525;28;20186;-74
2022/11/30 03:36:43;;;;;;;23.53;21.03;;;6.70;99.90;;;;;;5050328;28;20266;-73
2022/11/30 03:39:09;;;;;;;17.77;15.67;;;6.70;99.90;;;;;;5051031;28;20198;-74
2022/11/30 03:41:35;;;;;;;17.40;15.57;;;6.70;99.90;;;;;;5033533;28;20192;-73
2022/11/30 03:44:01;;;;;;;16.70;13.97;;;6.60;99.90;;;;;;5069385;28;20192;-73
2022/11/30 03:46:27;;;;;;;16.87;14.30;;;6.60;99.90;;;;;;5071289;28;20182;-73
2022/11/30 03:48:53;;;;;;;16.10;14.43;;;6.60;99.90;;;;;;5037238;28;20266;-73
2022/11/30 03:51:19;;;;;;;54.07;50.30;;;6.60;99.90;;;;;;5050784;28;20472;-73
2022/11/30 03:53:45;;;;;;;80.73;75.53;;;6.60;99.90;;;;;;5051059;28;20194;-73
2022/11/30 03:56:11;;;;;;;64.80;60.63;;;6.60;99.90;;;;;;5033197;28;20615;-73
2022/11/30 03:58:37;;;;;;;53.90;49.50;;;6.60;99.90;;;;;;5050321;28;20175;-74
2022/11/30 04:01:07;;;;;;;28.20;25.90;;;6.60;99.90;;;;;;5057323;28;20198;-73
2022/11/30 04:03:34;;;;;;;22.60;16.77;;;6.60;99.90;;;;;;5059114;28;20233;-73
2022/11/30 04:06:01;;;;;;;18.37;15.70;;;6.60;99.90;;;;;;5050452;28;20269;-73
2022/11/30 04:08:27;;;;;;;21.03;18.63;;;6.60;99.90;;;;;;5032619;28;20186;-73
2022/11/30 04:10:54;;;;;;;24.17;21.97;;;6.60;99.90;;;;;;5050663;28;20235;-73
2022/11/30 04:13:21;;;;;;;19.73;17.83;;;6.60;99.90;;;;;;5051832;28;20209;-73
2022/11/30 04:15:48;;;;;;;16.63;14.83;;;6.60;99.90;;;;;;5032455;28;20186;-73
2022/11/30 04:18:15;;;;;;;16.47;13.90;;;6.60;99.90;;;;;;5032603;28;20186;-73
2022/11/30 04:20:41;;;;;;;19.53;17.47;;;6.60;99.90;;;;;;5051560;28;20242;-73
2022/11/30 04:23:09;;;;;;;21.43;18.20;;;6.60;99.90;;;;;;5043450;28;20277;-73
2022/11/30 04:25:37;;;;;;;20.37;18.37;;;6.50;99.90;;;;;;5032270;28;20245;-73
2022/11/30 04:28:03;;;;;;;18.33;15.47;;;6.60;99.90;;;;;;5050219;28;20174;-73
2022/11/30 04:30:29;;;;;;;19.93;14.53;;;6.50;99.90;;;;;;5050157;28;20597;-73
2022/11/30 04:32:55;;;;;;;15.93;14.23;;;6.60;99.90;;;;;;5032885;28;20279;-73
2022/11/30 04:35:21;;;;;;;16.83;13.67;;;6.60;99.90;;;;;;5032890;28;20185;-74
2022/11/30 04:37:46;;;;;;;16.07;13.50;;;6.60;99.90;;;;;;5033440;28;20186;-74
2022/11/30 04:40:12;;;;;;;19.60;14.17;;;6.60;99.90;;;;;;5051062;28;20214;-72
2022/11/30 04:42:38;;;;;;;15.70;13.03;;;6.60;99.90;;;;;;5050622;28;20191;-72
2022/11/30 04:45:04;;;;;;;17.30;13.27;;;6.60;99.90;;;;;;5032542;28;20186;-74
2022/11/30 04:47:30;;;;;;;15.87;13.87;;;6.60;99.90;;;;;;5052459;28;20240;-72
2022/11/30 04:49:55;;;;;;;16.27;14.57;;;6.60;99.90;;;;;;5038378;28;20610;-72
2022/11/30 04:52:21;;;;;;;15.40;13.63;;;6.60;99.90;;;;;;5036530;28;20244;-73
2022/11/30 04:54:47;;;;;;;14.87;12.17;;;6.60;99.90;;;;;;5036522;28;20182;-72
2022/11/30 04:57:13;;;;;;;14.10;12.07;;;6.60;99.90;;;;;;5053869;28;20236;-72
2022/11/30 04:59:38;;;;;;;15.67;12.90;;;6.60;99.90;;;;;;5053763;28;20627;-72
2022/11/30 05:02:04;;;;;;;14.50;12.47;;;6.60;99.90;;;;;;5054230;28;20200;-72
2022/11/30 05:04:30;;;;;;;20.67;18.47;;;6.60;99.90;;;;;;5036283;28;20178;-73
2022/11/30 05:06:56;;;;;;;31.53;28.90;;;6.60;99.90;;;;;;5036079;28;20182;-74
2022/11/30 05:09:21;;;;;;;38.63;35.47;;;6.60;99.90;;;;;;5036253;28;20234;-73
2022/11/30 05:11:48;;;;;;;28.87;26.27;;;6.60;99.90;;;;;;5054032;28;20248;-72
2022/11/30 05:14:14;;;;;;;20.43;14.43;;;6.70;99.90;;;;;;5036051;28;20174;-72
2022/11/30 05:16:39;;;;;;;23.90;19.13;;;6.70;99.90;;;;;;5029600;28;20565;-71
2022/11/30 05:19:05;;;;;;;23.40;21.07;;;6.60;99.90;;;;;;5032310;28;20198;-72
2022/11/30 05:21:31;;;;;;;27.67;24.77;;;6.60;99.90;;;;;;5049853;28;20181;-72
2022/11/30 05:23:57;;;;;;;29.97;26.73;;;6.60;99.90;;;;;;5073139;28;20189;-72
2022/11/30 05:26:23;;;;;;;31.50;27.73;;;6.60;99.90;;;;;;5055496;28;20183;-72
2022/11/30 05:28:48;;;;;;;29.77;25.83;;;6.60;99.90;;;;;;5048314;28;20178;-71
2022/11/30 05:31:14;;;;;;;30.87;27.30;;;6.60;99.90;;;;;;5035035;28;20280;-72
2022/11/30 05:33:40;;;;;;;34.73;27.70;;;6.60;99.90;;;;;;5053307;28;20716;-71
2022/11/30 05:36:06;;;;;;;36.47;29.37;;;6.60;99.90;;;;;;5053224;28;20179;-72
2022/11/30 05:38:32;;;;;;;34.03;22.30;;;6.60;99.90;;;;;;5052746;28;20179;-72
2022/11/30 05:40:59;;;;;;;25.77;18.10;;;6.60;99.90;;;;;;5035251;28;20217;-72
2022/11/30 05:43:25;;;;;;;20.67;15.40;;;6.50;99.90;;;;;;5035261;28;20217;-72
2022/11/30 05:45:51;;;;;;;19.83;15.20;;;6.50;99.90;;;;;;5052690;28;20625;-71
2022/11/30 05:48:17;;;;;;;16.93;15.13;;;6.50;99.90;;;;;;5034963;28;20182;-71
2022/11/30 05:50:42;;;;;;;25.23;22.93;;;6.50;99.90;;;;;;5035411;28;20194;-72
2022/11/30 05:53:08;;;;;;;19.77;17.87;;;6.50;99.90;;;;;;5052760;28;20206;-71
2022/11/30 05:55:35;;;;;;;18.33;16.43;;;6.50;99.90;;;;;;5034986;28;20651;-72
2022/11/30 05:58:00;;;;;;;42.77;39.80;;;6.50;99.90;;;;;;5052447;28;20186;-72
2022/11/30 06:00:26;;;;;;;28.67;26.27;;;6.40;99.90;;;;;;5050702;28;20210;-72
2022/11/30 06:02:56;;;;;;;37.23;34.33;;;6.40;99.90;;;;;;5053974;28;20189;-71
2022/11/30 06:05:23;;;;;;;28.80;26.17;;;6.40;99.90;;;;;;5053652;28;20182;-71
2022/11/30 06:07:48;;;;;;;20.47;14.83;;;6.30;99.90;;;;;;5036687;28;20517;-72
2022/11/30 06:10:14;;;;;;;26.03;21.60;;;6.30;99.90;;;;;;5036584;28;20204;-72
2022/11/30 06:12:41;;;;;;;27.70;19.83;;;6.30;99.90;;;;;;5052733;28;20258;-72
2022/11/30 06:15:07;;;;;;;25.77;18.93;;;6.20;99.90;;;;;;5051816;28;20548;-72
2022/11/30 06:17:36;;;;;;;30.90;21.73;;;6.20;99.90;;;;;;5034168;28;20186;-72
2022/11/30 06:20:05;;;;;;;29.23;21.20;;;6.10;99.90;;;;;;5034333;28;20691;-73
2022/11/30 06:22:31;;;;;;;31.00;21.17;;;6.10;99.90;;;;;;5034178;28;20178;-71
2022/11/30 06:24:57;;;;;;;32.23;20.93;;;6.00;99.90;;;;;;5034241;28;20677;-71
2022/11/30 06:27:22;;;;;;;30.80;19.53;;;6.00;99.90;;;;;;5051607;28;20174;-72
2022/11/30 06:29:48;;;;;;;40.83;25.07;;;6.00;99.90;;;;;;5051827;28;20270;-75
2022/11/30 06:32:14;;;;;;;35.50;30.07;;;5.90;99.90;;;;;;5045503;28;20171;-70
2022/11/30 06:34:41;;;;;;;37.17;30.07;;;5.90;99.90;;;;;;5051674;28;20179;-71
2022/11/30 06:37:07;;;;;;;38.13;26.30;;;5.90;99.90;;;;;;5056476;28;20650;-70
2022/11/30 06:39:32;;;;;;;39.10;33.00;;;5.90;99.90;;;;;;5058365;28;20256;-71
2022/11/30 06:41:58;;;;;;;38.17;32.20;;;5.90;99.90;;;;;;5051973;28;20178;-70
2022/11/30 06:44:24;;;;;;;46.53;39.97;;;5.90;99.90;;;;;;5051648;28;20659;-70
2022/11/30 06:46:49;;;;;;;37.23;31.80;;;6.00;99.90;;;;;;5051267;28;20224;-70
2022/11/30 06:49:15;;;;;;;42.73;31.60;;;6.00;99.90;;;;;;5051168;28;20189;-70
2022/11/30 06:51:42;;;;;;;44.33;27.70;;;6.00;99.90;;;;;;5051985;28;20189;-71
2022/11/30 06:54:09;;;;;;;42.27;26.80;;;6.00;99.90;;;;;;5051939;28;20210;-71
2022/11/30 06:56:35;;;;;;;39.10;31.07;;;5.90;99.90;;;;;;5038167;28;20264;-71
2022/11/30 06:59:00;;;;;;;36.23;24.43;;;5.90;99.90;;;;;;5051618;28;20197;-70
2022/11/30 07:01:26;;;;;;;38.23;23.07;;;6.00;99.90;;;;;;5034464;28;20178;-70
2022/11/30 07:03:52;;;;;;;35.47;21.93;;;5.90;99.90;;;;;;5052202;28;20182;-73
2022/11/30 07:06:18;;;;;;;32.17;19.73;;;5.90;99.90;;;;;;5034392;28;20522;-73
2022/11/30 07:08:44;;;;;;;37.43;21.83;;;5.90;99.90;;;;;;5051627;28;20223;-72
2022/11/30 07:11:11;;;;;;;34.23;20.07;;;5.80;99.90;;;;;;5051790;28;20786;-73
2022/11/30 07:13:37;;;;;;;33.70;21.53;;;5.80;99.90;;;;;;5051747;28;20185;-73
2022/11/30 07:16:09;;;;;;;39.70;23.83;;;5.80;99.90;;;;;;5071604;28;20234;-73
2022/11/30 07:18:35;;;;;;;39.10;22.27;;;5.70;99.90;;;;;;5071635;28;20192;-73
2022/11/30 07:21:03;;;;;;;39.97;23.80;;;5.70;99.90;;;;;;5071661;28;20722;-73
2022/11/30 07:26:14;;;;;;;36.17;22.13;;;5.80;99.90;;;;;;5071366;28;20192;-73
2022/11/30 07:28:42;;;;;;;38.30;24.50;;;5.80;99.90;;;;;;5053714;28;20181;-72
2022/11/30 07:31:20;;;;;;;35.67;21.77;;;5.70;99.90;;;;;;5072029;28;20335;-73
2022/11/30 07:33:48;;;;;;;36.10;20.87;;;5.70;99.90;;;;;;5072294;28;20262;-72
2022/11/30 07:36:14;;;;;;;39.97;24.77;;;5.80;99.90;;;;;;5074794;28;20185;-73
2022/11/30 07:38:40;;;;;;;39.67;23.57;;;5.70;99.90;;;;;;5053940;28;20221;-73
2022/11/30 07:41:06;;;;;;;43.03;23.13;;;5.60;99.90;;;;;;5071947;28;20302;-74
2022/11/30 07:43:32;;;;;;;41.20;23.40;;;5.70;99.90;;;;;;5073833;28;20640;-73
2022/11/30 07:45:59;;;;;;;39.53;22.50;;;5.70;99.90;;;;;;5054940;28;20209;-73
2022/11/30 07:48:24;;;;;;;40.30;23.47;;;5.70;99.90;;;;;;5071512;28;20201;-73
2022/11/30 07:50:50;;;;;;;39.97;23.60;;;5.80;99.90;;;;;;5068505;28;20644;-73
2022/11/30 07:53:16;;;;;;;38.90;23.73;;;5.80;99.90;;;;;;5071190;28;20296;-73
2022/11/30 07:55:42;;;;;;;41.87;24.07;;;5.80;99.90;;;;;;5071291;28;20592;-72
2022/11/30 07:58:10;;;;;;;41.87;23.53;;;5.90;99.90;;;;;;5070949;28;20185;-73
2022/11/30 08:00:37;;;;;;;41.00;28.40;;;6.00;99.90;;;;;;5053388;28;20213;-73
2022/11/30 08:03:03;;;;;;;37.13;25.30;;;6.00;99.90;;;;;;5071226;28;20185;-73
2022/11/30 08:05:29;;;;;;;37.70;24.67;;;6.00;99.90;;;;;;5050534;28;20209;-72
2022/11/30 08:07:55;;;;;;;42.47;30.37;;;6.00;99.90;;;;;;5034256;28;20587;-73
2022/11/30 08:10:22;;;;;;;43.80;33.73;;;6.00;99.90;;;;;;5033473;28;20206;-73
2022/11/30 08:12:48;;;;;;;52.30;47.03;;;6.00;99.90;;;;;;5051235;28;20186;-73
2022/11/30 08:15:15;;;;;;;43.00;36.27;;;6.00;99.90;;;;;;5050947;28;20189;-73
2022/11/30 08:17:41;;;;;;;39.57;26.77;;;6.10;99.90;;;;;;5050659;28;20186;-73
2022/11/30 08:20:08;;;;;;;40.10;24.97;;;6.20;99.90;;;;;;5033611;28;20559;-73
2022/11/30 08:22:34;;;;;;;39.23;25.50;;;6.20;99.90;;;;;;5050416;28;20240;-74
2022/11/30 08:25:00;;;;;;;37.90;26.70;;;6.20;99.90;;;;;;5048538;28;20205;-73
2022/11/30 08:27:26;;;;;;;37.97;25.70;;;6.20;99.90;;;;;;5050285;28;20605;-73
2022/11/30 08:29:52;;;;;;;39.40;27.07;;;6.20;99.90;;;;;;5049737;28;20206;-73
2022/11/30 08:32:18;;;;;;;41.13;28.87;;;6.30;99.90;;;;;;5050106;28;20179;-73
2022/11/30 08:34:43;;;;;;;34.90;26.60;;;6.30;99.90;;;;;;5049994;28;20189;-73
2022/11/30 08:37:09;;;;;;;41.67;30.83;;;6.30;99.90;;;;;;5058077;28;20209;-73
2022/11/30 08:39:35;;;;;;;38.10;28.33;;;6.20;99.90;;;;;;5052769;28;20767;-73
2022/11/30 08:42:01;;;;;;;36.77;26.30;;;6.20;99.90;;;;;;5053013;28;20178;-73
2022/11/30 08:44:28;;;;;;;38.20;28.53;;;6.20;99.90;;;;;;5052910;28;20646;-73
2022/11/30 08:46:54;;;;;;;43.13;25.20;;;6.20;99.90;;;;;;5052513;28;20183;-73
2022/11/30 08:49:20;;;;;;;41.60;27.57;;;6.20;99.90;;;;;;5069688;28;20233;-73
2022/11/30 08:51:47;;;;;;;33.07;24.80;;;6.10;99.90;;;;;;5043706;28;20814;-73
2022/11/30 08:54:12;;;;;;;37.70;24.33;;;6.10;99.90;;;;;;5064667;28;20213;-73
2022/11/30 08:56:38;;;;;;;38.63;23.57;;;6.10;99.90;;;;;;5053728;28;20217;-73
2022/11/30 08:59:04;;;;;;;38.30;23.87;;;6.10;99.90;;;;;;5050218;28;20182;-73
2022/11/30 09:01:30;;;;;;;39.23;23.10;;;6.10;99.90;;;;;;5051301;28;20248;-73
2022/11/30 09:03:56;;;;;;;33.17;22.63;;;6.20;99.90;;;;;;5035138;28;20266;-73
2022/11/30 09:06:27;;;;;;;36.63;24.33;;;6.20;99.90;;;;;;5052285;28;20175;-73
2022/11/30 09:08:55;;;;;;;36.17;28.93;;;6.20;99.90;;;;;;5050146;28;20251;-73
2022/11/30 09:11:22;;;;;;;40.97;32.00;;;6.10;99.90;;;;;;5032811;28;20198;-73
2022/11/30 09:13:51;;;;;;;40.13;30.87;;;6.20;99.90;;;;;;5050465;28;20214;-74
2022/11/30 09:16:18;;;;;;;34.37;30.57;;;6.30;99.90;;;;;;5050708;28;20174;-73
2022/11/30 09:18:44;;;;;;;41.40;31.97;;;6.40;99.90;;;;;;5049672;28;20196;-73
2022/11/30 09:21:12;;;;;;;38.23;26.23;;;6.50;99.90;;;;;;5062204;28;20271;-73
2022/11/30 09:23:38;;;;;;;40.27;23.63;;;6.60;99.90;;;;;;5070435;28;20189;-73
2022/11/30 09:26:07;;;;;;;34.73;22.03;;;6.60;99.90;;;;;;5070306;28;20169;-73
2022/11/30 09:28:34;;;;;;;37.67;22.93;;;6.60;99.90;;;;;;5053141;28;20182;-73
2022/11/30 09:31:01;;;;;;;35.03;22.53;;;6.80;99.90;;;;;;5071268;28;20733;-73
2022/11/30 09:33:27;;;;;;;33.37;21.73;;;6.90;99.90;;;;;;5052961;28;20189;-73
2022/11/30 09:35:57;;;;;;;36.63;23.80;;;7.00;99.90;;;;;;5058624;28;20240;-76
2022/11/30 09:38:23;;;;;;;30.33;22.97;;;7.10;99.90;;;;;;5036134;28;20666;-72
2022/11/30 09:40:55;;;;;;;32.37;20.33;;;7.20;99.90;;;;;;5036017;28;20222;-75
2022/11/30 09:43:34;;;;;;;31.13;20.03;;;7.30;99.90;;;;;;5053896;28;20182;-72
2022/11/30 09:46:03;;;;;;;29.43;20.07;;;7.40;99.90;;;;;;5036065;28;20220;-72
2022/11/30 09:48:53;;;;;;;30.57;19.77;;;7.60;99.90;;;;;;5052905;28;20190;-70
2022/11/30 09:51:43;;;;;;;33.30;24.73;;;7.70;99.90;;;;;;5016016;28;20637;-70
2022/11/30 09:54:15;;;;;;;33.43;26.80;;;7.70;99.90;;;;;;5017038;28;20183;-70
2022/11/30 09:56:42;;;;;;;31.77;25.53;;;7.80;99.90;;;;;;5033717;28;20194;-69
2022/11/30 09:59:25;;;;;;;30.87;22.67;;;7.80;99.90;;;;;;5018021;28;20178;-70
2022/11/30 10:01:51;;;;;;;31.80;26.50;;;7.80;99.90;;;;;;5018796;28;20285;-69
2022/11/30 10:04:23;;;;;;;29.90;24.27;;;7.80;99.90;;;;;;5034309;28;20177;-69
2022/11/30 10:07:21;;;;;;;36.27;26.37;;;7.80;99.90;;;;;;5073165;28;20195;-70
2022/11/30 10:10:19;;;;;;;33.63;26.93;;;7.80;99.90;;;;;;5050761;28;20316;-70
2022/11/30 10:12:57;;;;;;;30.00;24.03;;;7.90;99.90;;;;;;5042254;28;20182;-70
2022/11/30 10:15:40;;;;;;;31.67;23.10;;;8.00;99.90;;;;;;5053225;28;20174;-70
2022/11/30 10:18:15;;;;;;;28.23;22.87;;;8.00;99.90;;;;;;5035404;28;20285;-70
2022/11/30 10:21:01;;;;;;;27.10;18.37;;;7.90;99.90;;;;;;5052263;28;20228;-69
2022/11/30 10:23:42;;;;;;;27.60;20.67;;;7.90;99.90;;;;;;5052793;28;20189;-70
2022/11/30 10:26:18;;;;;;;27.80;18.43;;;7.90;99.90;;;;;;5053221;28;20256;-70
2022/11/30 10:28:47;;;;;;;29.70;18.70;;;7.90;99.90;;;;;;5053618;28;20181;-70
2022/11/30 10:31:14;;;;;;;26.27;18.20;;;7.90;99.90;;;;;;5035387;28;20553;-70
2022/11/30 10:33:45;;;;;;;26.53;18.77;;;8.00;99.90;;;;;;5034985;28;20198;-70
2022/11/30 10:36:25;;;;;;;25.97;18.80;;;8.00;99.90;;;;;;5052660;28;20847;-70
2022/11/30 10:39:04;;;;;;;30.10;20.63;;;7.90;99.90;;;;;;5032399;28;20333;-70
2022/11/30 10:41:40;;;;;;;27.17;18.70;;;7.90;99.90;;;;;;5032770;28;20221;-70
2022/11/30 10:44:33;;;;;;;30.80;27.43;;;7.90;99.90;;;;;;5032728;28;20186;-70
2022/11/30 10:47:10;;;;;;;25.83;17.53;;;7.70;99.90;;;;;;5033649;28;20643;-69
2022/11/30 10:49:37;;;;;;;24.30;16.87;;;7.80;99.90;;;;;;5052521;28;20583;-70
2022/11/30 10:52:07;;;;;;;28.53;19.67;;;7.90;99.90;;;;;;5052829;28;20560;-70
2022/11/30 10:54:35;;;;;;;30.77;20.97;;;8.00;99.90;;;;;;5052509;28;20280;-70
2022/11/30 10:57:04;;;;;;;35.90;29.93;;;8.10;99.90;;;;;;5054579;28;20179;-70
2022/11/30 10:59:37;;;;;;;65.37;60.40;;;8.20;99.90;;;;;;5052178;28;20615;-70
2022/11/30 11:02:35;;;;;;;30.37;27.27;;;8.20;99.90;;;;;;5055539;28;20170;-70
2022/11/30 11:05:15;;;;;;;65.10;60.23;;;8.00;99.90;;;;;;5053943;28;20239;-70
2022/11/30 11:07:50;;;;;;;73.67;68.40;;;8.10;99.90;;;;;;5071842;28;20673;-70
2022/11/30 11:10:19;;;;;;;46.40;42.43;;;8.10;99.90;;;;;;5072320;28;20200;-70
2022/11/30 11:12:50;;;;;;;34.40;30.77;;;8.10;99.90;;;;;;5072403;28;20642;-70
2022/11/30 11:15:23;;;;;;;24.53;16.87;;;8.20;99.90;;;;;;5071923;28;20178;-70
2022/11/30 11:17:50;;;;;;;23.07;18.50;;;8.20;99.90;;;;;;5039224;28;20190;-70
2022/11/30 11:20:28;;;;;;;24.60;20.23;;;8.20;99.90;;;;;;5051667;28;20679;-70
2022/11/30 11:22:54;;;;;;;19.83;15.87;;;8.30;99.90;;;;;;5052110;28;20182;-70
2022/11/30 11:25:28;;;;;;;23.40;17.57;;;8.40;99.90;;;;;;5052004;28;20210;-70
2022/11/30 11:28:03;;;;;;;22.37;17.37;;;8.40;99.90;;;;;;5051517;28;20170;-70
2022/11/30 11:30:31;;;;;;;24.77;18.43;;;8.40;99.90;;;;;;5034083;28;20233;-70
2022/11/30 11:32:59;;;;;;;22.93;18.77;;;8.40;99.90;;;;;;5070759;28;20185;-70
2022/11/30 11:35:35;;;;;;;21.60;16.50;;;8.30;99.90;;;;;;5071644;28;20186;-70
2022/11/30 11:38:01;;;;;;;21.80;16.73;;;8.40;99.90;;;;;;5071437;28;20240;-70
2022/11/30 11:40:26;;;;;;;18.00;14.13;;;8.40;99.90;;;;;;5071490;28;20768;-69
2022/11/30 11:42:54;;;;;;;20.30;14.67;;;8.40;99.90;;;;;;5071663;28;20185;-69
2022/11/30 11:45:24;;;;;;;19.37;14.37;;;8.30;99.90;;;;;;5069353;28;20196;-70
2022/11/30 11:48:02;;;;;;;21.83;16.37;;;8.30;99.90;;;;;;5064049;28;20185;-71
2022/11/30 11:50:34;;;;;;;22.67;15.60;;;8.30;99.90;;;;;;5054730;28;20209;-71
2022/11/30 11:53:23;;;;;;;25.50;17.73;;;8.30;99.90;;;;;;5072013;28;20780;-70
2022/11/30 11:56:07;;;;;;;19.27;15.97;;;8.40;99.90;;;;;;5071486;28;20211;-70
2022/11/30 11:58:42;;;;;;;22.17;15.90;;;8.50;99.90;;;;;;5070220;28;20190;-70
2022/11/30 12:01:15;;;;;;;21.73;15.27;;;8.60;99.90;;;;;;5069279;28;20213;-70
2022/11/30 12:03:56;;;;;;;19.23;15.83;;;8.60;99.90;;;;;;5037097;28;20549;-70
2022/11/30 12:06:23;;;;;;;18.67;15.40;;;8.60;99.90;;;;;;5051261;28;20174;-69
2022/11/30 12:09:13;;;;;;;19.47;16.07;;;8.50;99.90;;;;;;5039859;28;20186;-69
2022/11/30 12:11:46;;;;;;;25.37;15.77;;;8.50;99.90;;;;;;5051149;28;20186;-69
2022/11/30 12:14:15;;;;;;;21.33;16.23;;;8.50;99.90;;;;;;5051244;28;20601;-70
2022/11/30 12:16:58;;;;;;;19.67;15.60;;;8.60;99.90;;;;;;5052153;28;20666;-69
2022/11/30 12:19:30;;;;;;;21.93;15.73;;;8.60;99.90;;;;;;5033000;28;20267;-69
2022/11/30 12:22:33;;;;;;;20.13;14.87;;;8.70;99.90;;;;;;5036189;28;20584;-69
2022/11/30 12:25:40;;;;;;;19.10;14.37;;;8.60;99.90;;;;;;5049886;28;20643;-69
2022/11/30 12:28:25;;;;;;;18.43;13.97;;;8.60;99.90;;;;;;4993515;28;20284;-69
2022/11/30 12:31:03;;;;;;;19.60;16.40;;;8.50;99.90;;;;;;5051652;28;20288;-69
2022/11/30 12:33:57;;;;;;;17.57;13.70;;;8.30;99.90;;;;;;5033384;28;20573;-69
2022/11/30 12:36:52;;;;;;;20.23;13.87;;;8.20;99.90;;;;;;5033345;28;20182;-69
2022/11/30 12:39:30;;;;;;;18.47;16.47;;;8.30;99.90;;;;;;5050721;28;20256;-69
2022/11/30 12:42:07;;;;;;;21.30;16.80;;;8.20;99.90;;;;;;5045924;28;20188;-69
2022/11/30 12:44:48;;;;;;;21.63;17.07;;;8.20;99.90;;;;;;5053091;28;20588;-70
2022/11/30 12:47:32;;;;;;;20.03;16.20;;;8.30;99.90;;;;;;5070483;28;20178;-70
2022/11/30 12:50:33;;;;;;;18.67;15.77;;;8.20;99.90;;;;;;5070789;28;20201;-70